Time;durP1;ratioP1;P1;durP2;ratioP2;P2;SDS_P1;SDS_P2;PMS_P1;PMS_P2;Temp;Humidity;BMP_temperature;BMP_pressure;BME280_temperature;BME280_humidity;BME280_pressure;Samples;Min_cycle;Max_cycle;Signal;HPM_P1;HPM_P2
2021/08/10 00:00:31;;;;;;;7.90;5.95;;;;;;;;;;5087209;28;20446;-93
2021/08/10 00:02:58;;;;;;;7.65;5.30;;;;;;;;;;5087110;28;21092;-94
2021/08/10 00:05:24;;;;;;;6.78;5.72;;;;;;;;;;5086565;28;20400;-94
2021/08/10 00:07:53;;;;;;;7.78;5.43;;;;;;;;;;5087178;28;20414;-93
2021/08/10 00:10:20;;;;;;;7.28;5.50;;;;;;;;;;5087317;28;20443;-93
2021/08/10 00:12:47;;;;;;;7.47;5.50;;;;;;;;;;5079635;28;20393;-95
2021/08/10 00:15:14;;;;;;;6.65;4.93;;;;;;;;;;5086592;28;20463;-93
2021/08/10 00:17:42;;;;;;;6.57;5.33;;;;;;;;;;5087956;28;20458;-94
2021/08/10 00:20:10;;;;;;;5.97;5.28;;;;;;;;;;5086956;28;20400;-94
2021/08/10 00:22:37;;;;;;;6.43;5.30;;;;;;;;;;5086522;28;21033;-94
2021/08/10 00:25:07;;;;;;;6.40;5.23;;;;;;;;;;5091011;28;20498;-94
2021/08/10 00:27:34;;;;;;;7.53;6.05;;;;;;;;;;5070191;28;20410;-94
2021/08/10 00:30:01;;;;;;;6.07;5.45;;;;;;;;;;5079349;28;21224;-94
2021/08/10 00:32:28;;;;;;;7.15;5.47;;;;;;;;;;5065224;28;20398;-93
2021/08/10 00:34:55;;;;;;;6.50;5.10;;;;;;;;;;5086181;28;20392;-93
2021/08/10 00:37:22;;;;;;;5.93;5.00;;;;;;;;;;5090248;28;20404;-94
2021/08/10 00:39:49;;;;;;;7.95;4.90;;;;;;;;;;5091492;28;20733;-94
2021/08/10 00:42:18;;;;;;;5.97;5.05;;;;;;;;;;5091365;28;20745;-94
2021/08/10 00:44:45;;;;;;;7.53;5.27;;;;;;;;;;5091544;28;20400;-95
2021/08/10 00:47:12;;;;;;;7.82;5.40;;;;;;;;;;5091493;28;20412;-93
2021/08/10 00:49:39;;;;;;;8.13;5.28;;;;;;;;;;5077971;28;20416;-95
2021/08/10 00:52:07;;;;;;;7.20;5.35;;;;;;;;;;5094011;28;20740;-94
2021/08/10 00:54:34;;;;;;;7.22;5.30;;;;;;;;;;5103093;28;20405;-94
2021/08/10 00:57:01;;;;;;;6.30;5.65;;;;;;;;;;5110181;28;20452;-93
2021/08/10 00:59:29;;;;;;;6.78;5.57;;;;;;;;;;5095040;28;20392;-94
2021/08/10 01:01:56;;;;;;;7.78;5.47;;;;;;;;;;5090165;28;20915;-94
2021/08/10 01:04:23;;;;;;;6.40;5.60;;;;;;;;;;5089522;28;20407;-94
2021/08/10 01:07:03;;;;;;;7.82;6.38;;;;;;;;;;5090403;28;20397;-94
2021/08/10 01:09:37;;;;;;;7.40;6.00;;;;;;;;;;5069776;28;20457;-92
2021/08/10 01:12:10;;;;;;;8.30;6.00;;;;;;;;;;5090064;28;20411;-94
2021/08/10 01:14:47;;;;;;;6.50;5.80;;;;;;;;;;5087555;28;20454;-94
2021/08/10 01:17:19;;;;;;;8.18;6.07;;;;;;;;;;5090580;28;20478;-94
2021/08/10 01:20:17;;;;;;;9.40;6.65;;;;;;;;;;5089474;28;20811;-94
2021/08/10 01:22:49;;;;;;;6.90;6.18;;;;;;;;;;5069644;28;20422;-94
2021/08/10 01:25:33;;;;;;;7.95;6.43;;;;;;;;;;5087930;28;20408;-94
2021/08/10 01:28:15;;;;;;;8.15;6.45;;;;;;;;;;5085462;28;20440;-94
2021/08/10 01:31:01;;;;;;;9.33;6.53;;;;;;;;;;5069306;28;20544;-94
2021/08/10 01:33:31;;;;;;;8.37;6.50;;;;;;;;;;5089341;28;20411;-95
2021/08/10 01:35:58;;;;;;;8.97;6.50;;;;;;;;;;5089381;28;20404;-94
2021/08/10 01:38:28;;;;;;;7.20;6.22;;;;;;;;;;5080141;28;20577;-93
2021/08/10 01:40:55;;;;;;;6.97;6.28;;;;;;;;;;5089854;28;20400;-94
2021/08/10 01:43:23;;;;;;;9.15;6.43;;;;;;;;;;5089008;28;20491;-95
2021/08/10 01:45:51;;;;;;;6.90;6.20;;;;;;;;;;5089813;28;20784;-94
2021/08/10 01:48:20;;;;;;;7.45;6.30;;;;;;;;;;5088880;28;20409;-94
2021/08/10 01:50:49;;;;;;;7.53;6.18;;;;;;;;;;5089697;28;20408;-94
2021/08/10 01:53:17;;;;;;;8.80;6.32;;;;;;;;;;5088855;28;20396;-93
2021/08/10 01:55:45;;;;;;;7.17;6.20;;;;;;;;;;5089300;28;20469;-94
2021/08/10 01:58:13;;;;;;;9.25;6.20;;;;;;;;;;5088551;28;20438;-92
2021/08/10 02:00:41;;;;;;;6.70;6.00;;;;;;;;;;5089605;28;20422;-94
2021/08/10 02:03:12;;;;;;;7.47;6.13;;;;;;;;;;5089419;28;20444;-94
2021/08/10 02:05:39;;;;;;;8.77;6.30;;;;;;;;;;5089747;28;20423;-92
2021/08/10 02:08:08;;;;;;;7.27;5.90;;;;;;;;;;5088900;28;20419;-94
2021/08/10 02:10:36;;;;;;;9.30;6.32;;;;;;;;;;5089334;28;20415;-94
2021/08/10 02:13:04;;;;;;;6.90;5.55;;;;;;;;;;5089458;28;20396;-94
2021/08/10 02:15:32;;;;;;;8.45;6.70;;;;;;;;;;5089343;28;20408;-95
2021/08/10 02:17:59;;;;;;;8.57;6.30;;;;;;;;;;5089172;28;20404;-94
2021/08/10 02:20:27;;;;;;;7.40;6.30;;;;;;;;;;5068579;28;20874;-94
2021/08/10 02:22:54;;;;;;;9.55;6.25;;;;;;;;;;5089158;28;20400;-94
2021/08/10 02:25:24;;;;;;;6.55;5.82;;;;;;;;;;5089060;28;20408;-95
2021/08/10 02:27:52;;;;;;;7.40;5.63;;;;;;;;;;5088609;28;20412;-95
2021/08/10 02:30:23;;;;;;;10.77;6.20;;;;;;;;;;5088429;28;20416;-93
2021/08/10 02:32:53;;;;;;;8.57;5.90;;;;;;;;;;5088652;28;20389;-94
2021/08/10 02:35:24;;;;;;;8.10;5.95;;;;;;;;;;5089019;28;20412;-93
2021/08/10 02:37:52;;;;;;;7.45;6.10;;;;;;;;;;5089052;28;20466;-94
2021/08/10 02:40:21;;;;;;;7.05;6.25;;;;;;;;;;5070171;28;20812;-92
2021/08/10 02:42:53;;;;;;;7.93;5.90;;;;;;;;;;5089256;28;20408;-94
2021/08/10 02:45:21;;;;;;;8.37;6.63;;;;;;;;;;5088781;28;20441;-94
2021/08/10 02:47:49;;;;;;;7.00;6.10;;;;;;;;;;5070563;28;20799;-93
2021/08/10 02:50:16;;;;;;;6.70;6.00;;;;;;;;;;5087934;28;20419;-92
2021/08/10 02:52:43;;;;;;;7.45;6.30;;;;;;;;;;5088757;28;20404;-93
2021/08/10 02:55:11;;;;;;;8.07;6.00;;;;;;;;;;5088213;28;20392;-94
2021/08/10 02:57:48;;;;;;;6.72;6.13;;;;;;;;;;5088694;28;20461;-95
2021/08/10 03:00:17;;;;;;;8.20;6.75;;;;;;;;;;5069845;28;20453;-94
2021/08/10 03:02:46;;;;;;;6.90;6.20;;;;;;;;;;5087695;28;20427;-94
2021/08/10 03:05:16;;;;;;;8.50;6.40;;;;;;;;;;5088363;28;20930;-94
2021/08/10 03:07:48;;;;;;;7.38;6.30;;;;;;;;;;5088209;28;20783;-92
2021/08/10 03:10:16;;;;;;;7.75;6.43;;;;;;;;;;5087857;28;20431;-95
2021/08/10 03:12:48;;;;;;;8.30;6.60;;;;;;;;;;5087958;28;20398;-94
2021/08/10 03:15:19;;;;;;;7.32;6.35;;;;;;;;;;5088444;28;21115;-93
2021/08/10 03:17:47;;;;;;;7.45;6.63;;;;;;;;;;5089347;28;20424;-95
2021/08/10 03:20:16;;;;;;;6.82;6.13;;;;;;;;;;5087876;28;20396;-94
2021/08/10 03:22:45;;;;;;;7.93;6.20;;;;;;;;;;5088347;28;20793;-93
2021/08/10 03:25:15;;;;;;;8.20;6.70;;;;;;;;;;5088282;28;20742;-94
2021/08/10 03:27:43;;;;;;;6.75;5.93;;;;;;;;;;5088812;28;20490;-94
2021/08/10 03:30:12;;;;;;;6.90;5.97;;;;;;;;;;5088363;28;20420;-94
2021/08/10 03:32:41;;;;;;;8.23;6.40;;;;;;;;;;5088251;28;20400;-95
2021/08/10 03:35:09;;;;;;;9.23;6.40;;;;;;;;;;5088637;28;20419;-94
2021/08/10 03:37:37;;;;;;;8.38;6.00;;;;;;;;;;5087928;28;20495;-92
2021/08/10 03:40:06;;;;;;;7.70;5.87;;;;;;;;;;5088133;28;20408;-94
2021/08/10 03:42:33;;;;;;;6.40;5.80;;;;;;;;;;5089039;28;20497;-93
2021/08/10 03:45:01;;;;;;;7.40;5.80;;;;;;;;;;5088295;28;21280;-93
2021/08/10 03:47:28;;;;;;;5.97;5.43;;;;;;;;;;5068071;28;20400;-95
2021/08/10 03:49:57;;;;;;;7.88;5.85;;;;;;;;;;5067229;28;20437;-93
2021/08/10 03:52:24;;;;;;;8.50;5.82;;;;;;;;;;5067438;28;20401;-94
2021/08/10 03:54:51;;;;;;;6.55;5.93;;;;;;;;;;5087489;28;20409;-94
2021/08/10 03:57:21;;;;;;;7.63;6.22;;;;;;;;;;5070676;28;20396;-93
2021/08/10 03:59:52;;;;;;;6.45;5.85;;;;;;;;;;5090650;28;20396;-94
2021/08/10 04:02:20;;;;;;;7.00;5.93;;;;;;;;;;5091214;28;20431;-93
2021/08/10 04:04:52;;;;;;;8.43;6.03;;;;;;;;;;5090801;28;20416;-93
2021/08/10 04:07:21;;;;;;;7.35;5.68;;;;;;;;;;5089553;28;20408;-94
2021/08/10 04:09:49;;;;;;;8.73;5.70;;;;;;;;;;5090480;28;20404;-93
2021/08/10 04:12:16;;;;;;;6.88;5.50;;;;;;;;;;5091035;28;20413;-94
2021/08/10 04:14:44;;;;;;;6.85;5.72;;;;;;;;;;5090914;28;20400;-91
2021/08/10 04:17:12;;;;;;;7.80;5.72;;;;;;;;;;5090486;28;20404;-93
2021/08/10 04:19:45;;;;;;;8.88;5.60;;;;;;;;;;5090531;28;20400;-93
2021/08/10 04:22:13;;;;;;;6.90;5.85;;;;;;;;;;5090806;28;20412;-95
2021/08/10 04:24:42;;;;;;;6.85;5.80;;;;;;;;;;5090995;28;20428;-94
2021/08/10 04:27:08;;;;;;;6.32;5.57;;;;;;;;;;5090335;28;20401;-95
2021/08/10 04:29:35;;;;;;;6.28;5.55;;;;;;;;;;5090299;28;21153;-94
2021/08/10 04:32:02;;;;;;;7.93;5.78;;;;;;;;;;5090918;28;20408;-95
2021/08/10 04:34:30;;;;;;;8.18;6.07;;;;;;;;;;5085501;28;20900;-93
2021/08/10 04:36:57;;;;;;;8.43;5.78;;;;;;;;;;5090499;28;20404;-92
2021/08/10 04:39:26;;;;;;;6.82;5.88;;;;;;;;;;5067869;28;20392;-94
2021/08/10 04:41:54;;;;;;;7.88;5.70;;;;;;;;;;5090617;28;20397;-93
2021/08/10 04:44:21;;;;;;;7.72;5.97;;;;;;;;;;5090993;28;21226;-93
2021/08/10 04:46:49;;;;;;;7.45;5.85;;;;;;;;;;5090732;28;20507;-92
2021/08/10 04:49:16;;;;;;;8.07;6.17;;;;;;;;;;5090362;28;20404;-93
2021/08/10 04:51:43;;;;;;;8.40;6.27;;;;;;;;;;5090731;28;20411;-92
2021/08/10 04:54:10;;;;;;;7.73;6.40;;;;;;;;;;5094446;28;20400;-94
2021/08/10 04:56:37;;;;;;;11.25;6.25;;;;;;;;;;5094694;28;20595;-94
2021/08/10 04:59:06;;;;;;;9.10;6.90;;;;;;;;;;5103699;28;20400;-93
2021/08/10 05:01:33;;;;;;;7.85;6.65;;;;;;;;;;5111637;28;20922;-93
2021/08/10 05:04:00;;;;;;;9.05;6.95;;;;;;;;;;5097149;28;21257;-93
2021/08/10 05:06:27;;;;;;;12.02;6.90;;;;;;;;;;5089634;28;20400;-93
2021/08/10 05:08:54;;;;;;;10.00;6.78;;;;;;;;;;5089588;28;21473;-94
2021/08/10 05:11:21;;;;;;;8.55;6.43;;;;;;;;;;5088834;28;20421;-92
2021/08/10 05:13:48;;;;;;;9.18;6.20;;;;;;;;;;5090011;28;20428;-92
2021/08/10 05:16:16;;;;;;;7.35;6.03;;;;;;;;;;5089584;28;20415;-94
2021/08/10 05:18:43;;;;;;;7.97;5.90;;;;;;;;;;5089611;28;20400;-94
2021/08/10 05:21:10;;;;;;;7.28;5.82;;;;;;;;;;5088690;28;20994;-93
2021/08/10 05:23:37;;;;;;;9.18;6.03;;;;;;;;;;5089290;28;20407;-94
2021/08/10 05:26:03;;;;;;;9.40;6.40;;;;;;;;;;5071364;28;20400;-94
2021/08/10 05:28:31;;;;;;;8.05;5.65;;;;;;;;;;5069362;28;20410;-93
2021/08/10 05:30:57;;;;;;;7.57;5.70;;;;;;;;;;5077594;28;20437;-93
2021/08/10 05:33:26;;;;;;;7.35;5.53;;;;;;;;;;5089321;28;20768;-93
2021/08/10 05:35:52;;;;;;;7.47;6.20;;;;;;;;;;5088862;28;20899;-94
2021/08/10 05:38:19;;;;;;;8.77;6.40;;;;;;;;;;5090666;28;20415;-94
2021/08/10 05:40:46;;;;;;;7.80;6.30;;;;;;;;;;5088545;28;20400;-94
2021/08/10 05:43:13;;;;;;;9.17;7.17;;;;;;;;;;5089948;28;20396;-93
2021/08/10 05:45:40;;;;;;;8.60;6.87;;;;;;;;;;5088856;28;20407;-93
2021/08/10 05:48:10;;;;;;;10.10;6.80;;;;;;;;;;5088974;28;20973;-95
2021/08/10 05:50:39;;;;;;;10.60;6.43;;;;;;;;;;5088869;28;20418;-94
2021/08/10 05:53:06;;;;;;;7.47;6.60;;;;;;;;;;5088803;28;20412;-95
2021/08/10 05:55:33;;;;;;;8.38;6.50;;;;;;;;;;5081396;28;20392;-93
2021/08/10 05:58:00;;;;;;;7.38;6.28;;;;;;;;;;5087347;28;20408;-94
2021/08/10 06:00:27;;;;;;;7.63;5.97;;;;;;;;;;5088890;28;20754;-96
2021/08/10 06:02:55;;;;;;;7.70;5.93;;;;;;;;;;5089760;28;20880;-93
2021/08/10 06:05:22;;;;;;;9.52;6.28;;;;;;;;;;5089472;28;20422;-96
2021/08/10 06:07:51;;;;;;;8.32;6.30;;;;;;;;;;5097675;28;20409;-96
2021/08/10 06:10:18;;;;;;;9.43;6.47;;;;;;;;;;5101913;28;20398;-94
2021/08/10 06:12:45;;;;;;;8.88;6.72;;;;;;;;;;5088677;28;20416;-95
2021/08/10 06:15:13;;;;;;;11.45;6.88;;;;;;;;;;5091478;28;20412;-94
2021/08/10 06:17:40;;;;;;;10.38;7.07;;;;;;;;;;5091262;28;20409;-95
2021/08/10 06:20:08;;;;;;;8.90;6.60;;;;;;;;;;5088714;28;20396;-95
2021/08/10 06:22:35;;;;;;;9.70;7.50;;;;;;;;;;5087676;28;20415;-94
2021/08/10 06:25:04;;;;;;;12.40;7.50;;;;;;;;;;5084194;28;20435;-95
2021/08/10 06:27:31;;;;;;;9.07;6.55;;;;;;;;;;5088453;28;20404;-95
2021/08/10 06:29:59;;;;;;;10.57;6.90;;;;;;;;;;5084486;28;20408;-95
2021/08/10 06:32:26;;;;;;;10.47;6.37;;;;;;;;;;5094311;28;20415;-94
2021/08/10 06:34:53;;;;;;;7.18;6.10;;;;;;;;;;5090783;28;20412;-95
2021/08/10 06:37:20;;;;;;;7.15;5.88;;;;;;;;;;5088820;28;20412;-94
2021/08/10 06:39:47;;;;;;;6.88;6.18;;;;;;;;;;5088811;28;21277;-95
2021/08/10 06:42:18;;;;;;;6.80;6.00;;;;;;;;;;5088890;28;20421;-95
2021/08/10 06:44:46;;;;;;;7.45;6.00;;;;;;;;;;5088271;28;20411;-94
2021/08/10 06:47:13;;;;;;;7.47;6.50;;;;;;;;;;5088468;28;20404;-95
2021/08/10 06:49:40;;;;;;;9.32;6.20;;;;;;;;;;5087897;28;20408;-95
2021/08/10 06:52:08;;;;;;;9.98;5.95;;;;;;;;;;5087962;28;20420;-94
2021/08/10 06:54:35;;;;;;;8.65;6.00;;;;;;;;;;5088483;28;20443;-94
2021/08/10 06:57:06;;;;;;;9.43;6.38;;;;;;;;;;5088604;28;20412;-95
2021/08/10 06:59:35;;;;;;;8.85;6.65;;;;;;;;;;5089063;28;20815;-95
2021/08/10 07:02:02;;;;;;;8.02;6.25;;;;;;;;;;5095453;28;20400;-95
2021/08/10 07:04:29;;;;;;;6.68;5.60;;;;;;;;;;5092787;28;21188;-94
2021/08/10 07:06:56;;;;;;;9.13;5.60;;;;;;;;;;5089036;28;20780;-95
2021/08/10 07:09:24;;;;;;;7.32;6.30;;;;;;;;;;5088725;28;20408;-96
2021/08/10 07:11:51;;;;;;;8.48;5.90;;;;;;;;;;5088570;28;20951;-95
2021/08/10 07:14:18;;;;;;;7.70;5.55;;;;;;;;;;5088236;28;21276;-95
2021/08/10 07:16:47;;;;;;;8.65;5.35;;;;;;;;;;5088858;28;20907;-95
2021/08/10 07:19:15;;;;;;;8.13;6.00;;;;;;;;;;5088096;28;20500;-95
2021/08/10 07:21:42;;;;;;;9.27;5.18;;;;;;;;;;5088538;28;20412;-95
2021/08/10 07:24:09;;;;;;;7.10;5.37;;;;;;;;;;5089007;28;20415;-80
2021/08/10 07:26:37;;;;;;;7.70;5.30;;;;;;;;;;5088029;28;20404;-95
2021/08/10 07:29:04;;;;;;;8.45;5.50;;;;;;;;;;5086482;28;20404;-96
2021/08/10 07:31:32;;;;;;;6.80;5.57;;;;;;;;;;5089066;28;20408;-96
2021/08/10 07:34:01;;;;;;;9.05;5.53;;;;;;;;;;5079650;28;21239;-95
2021/08/10 07:36:28;;;;;;;6.75;5.00;;;;;;;;;;5099121;28;20408;-95
2021/08/10 07:38:55;;;;;;;6.88;5.60;;;;;;;;;;5092898;28;20404;-95
2021/08/10 07:41:22;;;;;;;5.85;5.22;;;;;;;;;;5091995;28;20404;-95
2021/08/10 07:43:49;;;;;;;8.65;5.53;;;;;;;;;;5092418;28;20419;-94
2021/08/10 07:46:17;;;;;;;9.20;5.35;;;;;;;;;;5092167;28;20752;-95
2021/08/10 07:48:44;;;;;;;7.40;4.90;;;;;;;;;;5092129;28;20419;-95
2021/08/10 07:51:13;;;;;;;6.93;4.85;;;;;;;;;;5092063;28;20867;-95
2021/08/10 07:53:40;;;;;;;4.97;4.20;;;;;;;;;;5097219;28;20426;-93
2021/08/10 07:56:07;;;;;;;9.55;4.50;;;;;;;;;;5096991;28;20406;-81
2021/08/10 07:58:33;;;;;;;9.38;4.53;;;;;;;;;;5091437;28;20398;-80
2021/08/10 08:01:00;;;;;;;7.23;4.07;;;;;;;;;;5096484;28;20392;-81
2021/08/10 08:03:27;;;;;;;7.95;4.47;;;;;;;;;;5089657;28;20462;-80
2021/08/10 08:05:54;;;;;;;6.90;4.55;;;;;;;;;;5094412;28;20874;-81
2021/08/10 08:08:25;;;;;;;7.22;4.68;;;;;;;;;;5092929;28;20399;-82
2021/08/10 08:10:52;;;;;;;8.70;4.43;;;;;;;;;;5086344;28;20801;-81
2021/08/10 08:13:19;;;;;;;6.68;4.40;;;;;;;;;;5093081;28;20473;-81
2021/08/10 08:15:46;;;;;;;7.23;4.23;;;;;;;;;;5094229;28;20939;-80
2021/08/10 08:18:13;;;;;;;5.00;4.27;;;;;;;;;;5095298;28;20402;-81
2021/08/10 08:20:40;;;;;;;6.82;4.38;;;;;;;;;;5085712;28;20458;-80
2021/08/10 08:23:07;;;;;;;7.13;3.88;;;;;;;;;;5088219;28;20908;-81
2021/08/10 08:25:35;;;;;;;5.35;4.38;;;;;;;;;;5089546;28;20406;-80
2021/08/10 08:28:03;;;;;;;6.00;4.35;;;;;;;;;;5086185;28;20447;-79
2021/08/10 08:30:32;;;;;;;5.90;4.05;;;;;;;;;;5088255;28;20412;-80
2021/08/10 08:32:59;;;;;;;4.50;3.95;;;;;;;;;;5089712;28;20401;-79
2021/08/10 08:35:26;;;;;;;4.72;3.58;;;;;;;;;;5087212;28;20419;-79
2021/08/10 08:37:53;;;;;;;5.30;3.80;;;;;;;;;;5087217;28;20408;-79
2021/08/10 08:40:21;;;;;;;5.70;3.97;;;;;;;;;;5086796;28;20487;-80
2021/08/10 08:42:49;;;;;;;5.65;3.60;;;;;;;;;;5088850;28;20399;-79
2021/08/10 08:45:16;;;;;;;4.53;3.70;;;;;;;;;;5085981;28;20417;-80
2021/08/10 08:47:50;;;;;;;5.60;3.75;;;;;;;;;;5092084;28;20398;-78
2021/08/10 08:50:18;;;;;;;5.85;3.88;;;;;;;;;;5083378;28;20400;-79
2021/08/10 08:52:50;;;;;;;4.80;3.70;;;;;;;;;;5088511;28;20401;-79
2021/08/10 08:55:17;;;;;;;6.22;4.00;;;;;;;;;;5091702;28;20763;-79
2021/08/10 08:57:43;;;;;;;6.32;4.40;;;;;;;;;;5087818;28;20482;-78
2021/08/10 09:00:14;;;;;;;4.82;4.32;;;;;;;;;;5095599;28;20444;-78
2021/08/10 09:02:43;;;;;;;6.60;4.00;;;;;;;;;;5091030;28;20402;-79
2021/08/10 09:05:11;;;;;;;6.70;4.30;;;;;;;;;;5083707;28;20884;-79
2021/08/10 09:07:38;;;;;;;5.07;3.90;;;;;;;;;;5090231;28;20427;-79
2021/08/10 09:10:08;;;;;;;6.22;4.38;;;;;;;;;;5089279;28;20398;-79
2021/08/10 09:12:43;;;;;;;4.70;4.07;;;;;;;;;;5089971;28;20428;-79
2021/08/10 09:15:11;;;;;;;5.20;4.18;;;;;;;;;;5088291;28;20863;-79
2021/08/10 09:17:48;;;;;;;6.63;4.60;;;;;;;;;;5088741;28;20418;-78
2021/08/10 09:20:22;;;;;;;5.03;4.28;;;;;;;;;;5086682;28;20405;-79
2021/08/10 09:22:53;;;;;;;5.75;4.40;;;;;;;;;;5081326;28;20792;-79
2021/08/10 09:25:20;;;;;;;7.88;4.47;;;;;;;;;;5085786;28;20762;-86
2021/08/10 09:27:47;;;;;;;7.75;4.13;;;;;;;;;;5081945;28;20404;-85
2021/08/10 09:30:17;;;;;;;6.20;4.10;;;;;;;;;;5089427;28;20751;-85
2021/08/10 09:33:00;;;;;;;4.90;3.87;;;;;;;;;;5083131;28;20420;-84
2021/08/10 09:35:31;;;;;;;5.90;4.55;;;;;;;;;;5079535;28;20402;-88
2021/08/10 09:38:10;;;;;;;13.45;4.82;;;;;;;;;;5089781;28;20792;-93
2021/08/10 09:40:38;;;;;;;14.98;4.97;;;;;;;;;;5084571;28;20400;-87
2021/08/10 09:43:26;;;;;;;6.50;4.20;;;;;;;;;;5088173;28;20408;-90
2021/08/10 09:46:10;;;;;;;7.85;4.25;;;;;;;;;;5087194;28;20411;-80
2021/08/10 09:48:40;;;;;;;4.93;3.67;;;;;;;;;;5088543;28;21100;-79
2021/08/10 09:51:12;;;;;;;5.75;4.00;;;;;;;;;;5086129;28;20600;-79
2021/08/10 09:53:40;;;;;;;5.43;4.05;;;;;;;;;;5086246;28;20408;-92
2021/08/10 09:56:08;;;;;;;5.57;4.05;;;;;;;;;;5091277;28;20423;-92
2021/08/10 09:58:57;;;;;;;5.80;4.13;;;;;;;;;;5091766;28;20415;-93
2021/08/10 10:01:32;;;;;;;4.97;3.83;;;;;;;;;;5089803;28;20467;-91
2021/08/10 10:04:18;;;;;;;6.68;4.00;;;;;;;;;;5086337;28;20425;-92
2021/08/10 10:06:46;;;;;;;6.85;3.72;;;;;;;;;;5095927;28;20408;-92
2021/08/10 10:09:14;;;;;;;5.43;3.60;;;;;;;;;;5088143;28;20400;-92
2021/08/10 10:11:42;;;;;;;5.05;3.72;;;;;;;;;;5084782;28;20935;-80
2021/08/10 10:14:11;;;;;;;5.53;3.38;;;;;;;;;;5087619;28;20408;-80
2021/08/10 10:16:40;;;;;;;6.25;3.42;;;;;;;;;;5097216;28;20404;-92
2021/08/10 10:19:10;;;;;;;5.68;3.90;;;;;;;;;;5095744;28;20455;-94
2021/08/10 10:21:43;;;;;;;6.82;3.85;;;;;;;;;;5094725;28;20477;-94
2021/08/10 10:24:12;;;;;;;4.28;3.33;;;;;;;;;;5097438;28;20399;-94
2021/08/10 10:26:42;;;;;;;7.07;4.00;;;;;;;;;;5090540;28;20964;-93
2021/08/10 10:29:11;;;;;;;7.00;3.90;;;;;;;;;;5085571;28;20413;-94
2021/08/10 10:31:39;;;;;;;6.53;3.80;;;;;;;;;;5091247;28;20892;-94
2021/08/10 10:34:06;;;;;;;6.82;3.80;;;;;;;;;;5092353;28;20408;-93
2021/08/10 10:36:35;;;;;;;4.50;3.63;;;;;;;;;;5084660;28;20839;-92
2021/08/10 10:39:07;;;;;;;6.05;4.05;;;;;;;;;;5087965;28;20419;-94
2021/08/10 10:41:35;;;;;;;8.30;3.92;;;;;;;;;;5085088;28;20408;-93
2021/08/10 10:44:03;;;;;;;5.25;3.78;;;;;;;;;;5089246;28;20404;-92
2021/08/10 10:46:32;;;;;;;7.32;3.58;;;;;;;;;;5094303;28;20408;-94
2021/08/10 10:49:00;;;;;;;6.90;3.58;;;;;;;;;;5086174;28;20412;-92
2021/08/10 10:51:30;;;;;;;5.13;3.90;;;;;;;;;;5088933;28;20462;-94
2021/08/10 10:54:23;;;;;;;5.00;3.70;;;;;;;;;;5085877;28;20416;-92
2021/08/10 10:56:51;;;;;;;5.68;3.40;;;;;;;;;;5090614;28;20442;-94
2021/08/10 10:59:27;;;;;;;5.32;3.70;;;;;;;;;;5085464;28;20416;-94
2021/08/10 11:02:10;;;;;;;6.07;3.30;;;;;;;;;;5084040;28;20882;-94
2021/08/10 11:04:37;;;;;;;4.32;3.55;;;;;;;;;;5071061;28;20417;-94
2021/08/10 11:07:37;;;;;;;4.97;3.73;;;;;;;;;;5058909;28;20406;-93
2021/08/10 11:10:05;;;;;;;4.68;3.55;;;;;;;;;;5064058;28;20815;-92
2021/08/10 11:12:42;;;;;;;6.82;3.42;;;;;;;;;;5063104;28;20422;-92
2021/08/10 11:15:10;;;;;;;6.97;3.83;;;;;;;;;;5062119;28;20478;-93
2021/08/10 11:17:37;;;;;;;5.30;3.40;;;;;;;;;;5067284;28;20491;-91
2021/08/10 11:20:23;;;;;;;6.30;3.90;;;;;;;;;;5066722;28;20419;-92
2021/08/10 11:22:51;;;;;;;8.25;3.45;;;;;;;;;;5060572;28;20400;-92
2021/08/10 11:25:24;;;;;;;3.83;3.40;;;;;;;;;;5068413;28;20412;-92
2021/08/10 11:27:51;;;;;;;5.18;3.30;;;;;;;;;;5063604;28;20405;-91
2021/08/10 11:30:46;;;;;;;5.75;3.80;;;;;;;;;;5063649;28;20743;-92
2021/08/10 11:33:38;;;;;;;5.65;3.70;;;;;;;;;;5062867;28;20418;-93
2021/08/10 11:36:23;;;;;;;5.57;3.70;;;;;;;;;;5063793;28;20582;-90
2021/08/10 11:39:08;;;;;;;5.43;3.58;;;;;;;;;;5064005;28;21305;-92
2021/08/10 11:41:37;;;;;;;4.60;3.45;;;;;;;;;;5062290;28;20412;-93
2021/08/10 11:44:07;;;;;;;4.57;3.50;;;;;;;;;;5066599;28;20397;-92
2021/08/10 11:46:35;;;;;;;5.45;3.50;;;;;;;;;;5063256;28;20424;-91
2021/08/10 11:49:04;;;;;;;5.15;3.67;;;;;;;;;;5063119;28;20896;-85
2021/08/10 11:51:35;;;;;;;5.30;3.20;;;;;;;;;;5072917;28;20416;-93
2021/08/10 11:54:10;;;;;;;7.13;3.58;;;;;;;;;;5055601;28;20470;-93
2021/08/10 11:56:39;;;;;;;4.60;3.40;;;;;;;;;;5059302;28;20400;-94
2021/08/10 11:59:09;;;;;;;7.75;3.80;;;;;;;;;;5069572;28;20393;-93
2021/08/10 12:01:37;;;;;;;4.28;3.30;;;;;;;;;;5068737;28;20457;-93
2021/08/10 12:04:12;;;;;;;5.30;3.40;;;;;;;;;;5071916;28;20431;-91
2021/08/10 12:06:40;;;;;;;5.68;3.42;;;;;;;;;;5084069;28;20411;-92
2021/08/10 12:09:11;;;;;;;4.95;3.47;;;;;;;;;;5083566;28;20423;-93
2021/08/10 12:11:38;;;;;;;4.05;3.25;;;;;;;;;;5083610;28;20475;-93
2021/08/10 12:14:10;;;;;;;5.47;3.30;;;;;;;;;;5082911;28;20420;-92
2021/08/10 12:16:37;;;;;;;4.35;3.10;;;;;;;;;;5081376;28;20419;-94
2021/08/10 12:19:04;;;;;;;5.07;3.42;;;;;;;;;;5082915;28;20489;-93
2021/08/10 12:21:43;;;;;;;5.55;3.10;;;;;;;;;;5084593;28;20411;-92
2021/08/10 12:24:25;;;;;;;9.15;3.67;;;;;;;;;;5083268;28;20868;-94
2021/08/10 12:26:53;;;;;;;4.28;3.00;;;;;;;;;;5081709;28;20902;-93
2021/08/10 12:29:20;;;;;;;6.55;3.05;;;;;;;;;;5083141;28;20525;-94
2021/08/10 12:31:48;;;;;;;5.47;2.90;;;;;;;;;;5082107;28;21483;-93
2021/08/10 12:34:15;;;;;;;5.47;3.10;;;;;;;;;;5083000;28;20706;-93
2021/08/10 12:36:53;;;;;;;5.28;3.10;;;;;;;;;;5088032;28;20400;-94
2021/08/10 12:39:22;;;;;;;5.17;2.70;;;;;;;;;;5082870;28;20526;-92
2021/08/10 12:41:49;;;;;;;4.70;2.72;;;;;;;;;;5082506;28;21097;-94
2021/08/10 12:44:16;;;;;;;3.35;2.58;;;;;;;;;;5084319;28;20412;-95
2021/08/10 12:46:44;;;;;;;4.72;2.53;;;;;;;;;;5084678;28;20397;-94
2021/08/10 12:49:13;;;;;;;4.18;2.55;;;;;;;;;;5084932;28;20411;-93
2021/08/10 12:52:01;;;;;;;2.40;2.20;;;;;;;;;;5084979;28;20412;-93
2021/08/10 12:54:31;;;;;;;3.30;2.50;;;;;;;;;;5087256;28;20670;-91
2021/08/10 12:57:00;;;;;;;2.95;2.17;;;;;;;;;;5087868;28;20868;-95
2021/08/10 12:59:45;;;;;;;3.63;2.10;;;;;;;;;;5086991;28;20760;-91
2021/08/10 13:02:12;;;;;;;6.75;2.67;;;;;;;;;;5088853;28;20421;-93
2021/08/10 13:04:39;;;;;;;4.07;2.70;;;;;;;;;;5085982;28;20520;-92
2021/08/10 13:07:14;;;;;;;4.78;2.55;;;;;;;;;;5089745;28;20412;-92
2021/08/10 13:09:55;;;;;;;4.95;2.80;;;;;;;;;;5089019;28;20971;-93
2021/08/10 13:12:23;;;;;;;6.20;2.80;;;;;;;;;;5088721;28;20462;-94
2021/08/10 13:14:58;;;;;;;4.38;2.60;;;;;;;;;;5090399;28;20399;-93
2021/08/10 13:17:33;;;;;;;4.22;2.90;;;;;;;;;;5087960;28;20408;-93
2021/08/10 13:20:06;;;;;;;4.20;2.83;;;;;;;;;;5083868;28;20392;-95
2021/08/10 13:22:47;;;;;;;7.03;3.70;;;;;;;;;;5085748;28;20405;-90
2021/08/10 13:25:18;;;;;;;5.10;3.20;;;;;;;;;;5085744;28;20416;-86
2021/08/10 13:27:45;;;;;;;5.40;3.13;;;;;;;;;;5081176;28;20436;-95
2021/08/10 13:30:24;;;;;;;6.00;3.08;;;;;;;;;;5083966;28;20409;-94
2021/08/10 13:33:13;;;;;;;6.43;3.30;;;;;;;;;;5080456;28;20412;-95
2021/08/10 13:35:41;;;;;;;5.60;3.17;;;;;;;;;;5086350;28;20421;-94
2021/08/10 13:38:09;;;;;;;4.50;2.83;;;;;;;;;;5087513;28;20408;-95
2021/08/10 13:40:39;;;;;;;4.63;3.20;;;;;;;;;;5086270;28;20408;-94
2021/08/10 13:43:08;;;;;;;4.45;3.00;;;;;;;;;;5085791;28;20423;-95
2021/08/10 13:45:40;;;;;;;4.68;3.10;;;;;;;;;;5097590;28;20408;-95
2021/08/10 13:48:15;;;;;;;5.40;3.30;;;;;;;;;;5100881;28;20396;-95
2021/08/10 13:50:47;;;;;;;4.82;3.00;;;;;;;;;;5086327;28;20722;-94
2021/08/10 13:53:14;;;;;;;5.72;3.47;;;;;;;;;;5093034;28;20423;-95
2021/08/10 13:55:45;;;;;;;5.88;3.20;;;;;;;;;;5096013;28;20426;-95
2021/08/10 13:58:12;;;;;;;3.70;3.30;;;;;;;;;;5097306;28;20396;-96
2021/08/10 14:00:39;;;;;;;6.63;3.35;;;;;;;;;;5099128;28;20411;-95
2021/08/10 14:03:07;;;;;;;8.90;3.38;;;;;;;;;;5101678;28;20412;-95
2021/08/10 14:05:36;;;;;;;7.60;3.40;;;;;;;;;;5085682;28;20894;-96
2021/08/10 14:08:05;;;;;;;6.20;3.30;;;;;;;;;;5083515;28;20405;-95
2021/08/10 14:10:35;;;;;;;4.13;3.40;;;;;;;;;;5078969;28;20416;-95
2021/08/10 14:13:05;;;;;;;4.30;3.25;;;;;;;;;;5079704;28;20477;-95
2021/08/10 14:15:32;;;;;;;4.03;3.15;;;;;;;;;;5079536;28;20402;-96
2021/08/10 14:17:59;;;;;;;4.78;3.30;;;;;;;;;;5071010;28;20769;-95
2021/08/10 14:20:26;;;;;;;6.65;3.13;;;;;;;;;;5069487;28;20896;-94
2021/08/10 14:22:53;;;;;;;5.03;3.10;;;;;;;;;;5070095;28;20414;-95
2021/08/10 14:25:20;;;;;;;5.00;3.20;;;;;;;;;;5065762;28;20453;-85
2021/08/10 14:27:47;;;;;;;9.00;3.22;;;;;;;;;;5068183;28;20403;-96
2021/08/10 14:30:16;;;;;;;5.10;3.00;;;;;;;;;;5067818;28;20417;-95
2021/08/10 14:32:43;;;;;;;3.75;2.97;;;;;;;;;;5065573;28;20412;-95
2021/08/10 14:35:11;;;;;;;4.50;3.13;;;;;;;;;;5071628;28;20825;-95
2021/08/10 14:37:38;;;;;;;4.63;3.05;;;;;;;;;;5068633;28;20426;-95
2021/08/10 14:40:07;;;;;;;4.30;2.90;;;;;;;;;;5066052;28;20406;-95
2021/08/10 14:42:34;;;;;;;3.60;2.90;;;;;;;;;;5065255;28;20444;-95
2021/08/10 14:45:02;;;;;;;3.83;3.00;;;;;;;;;;5069925;28;20406;-96
2021/08/10 14:47:31;;;;;;;3.30;2.90;;;;;;;;;;5071476;28;20505;-93
2021/08/10 14:49:58;;;;;;;5.78;3.10;;;;;;;;;;5070338;28;20471;-96
2021/08/10 14:52:26;;;;;;;4.17;3.07;;;;;;;;;;5066438;28;20410;-94
2021/08/10 14:54:53;;;;;;;4.55;3.00;;;;;;;;;;5071619;28;20402;-95
2021/08/10 14:57:24;;;;;;;4.00;2.90;;;;;;;;;;5073282;28;20418;-95